sensor_id;sensor_type;location;lat;lon;timestamp;pressure;altitude;pressure_sealevel;temperature;humidity
50790;BME280;37287;47.554;7.844;2023-02-10T00:01:27;99752.47;;;-4.91;100.00
50790;BME280;37287;47.554;7.844;2023-02-10T00:03:55;99753.63;;;-4.99;100.00
50790;BME280;37287;47.554;7.844;2023-02-10T00:06:23;99750.47;;;-5.08;100.00
50790;BME280;37287;47.554;7.844;2023-02-10T00:08:57;99752.00;;;-5.00;100.00
50790;BME280;37287;47.554;7.844;2023-02-10T00:11:24;99750.59;;;-5.03;100.00
50790;BME280;37287;47.554;7.844;2023-02-10T00:14:13;99753.25;;;-5.03;100.00
50790;BME280;37287;47.554;7.844;2023-02-10T00:16:40;99756.47;;;-5.01;100.00
50790;BME280;37287;47.554;7.844;2023-02-10T00:19:06;99760.94;;;-5.01;100.00
50790;BME280;37287;47.554;7.844;2023-02-10T00:21:33;99764.84;;;-5.04;100.00
50790;BME280;37287;47.554;7.844;2023-02-10T00:24:00;99768.31;;;-5.03;100.00
50790;BME280;37287;47.554;7.844;2023-02-10T00:26:27;99765.28;;;-5.07;100.00
50790;BME280;37287;47.554;7.844;2023-02-10T00:28:54;99771.50;;;-5.13;100.00
50790;BME280;37287;47.554;7.844;2023-02-10T00:31:20;99779.19;;;-5.11;100.00
50790;BME280;37287;47.554;7.844;2023-02-10T00:33:48;99783.38;;;-5.22;100.00
50790;BME280;37287;47.554;7.844;2023-02-10T00:36:16;99780.50;;;-5.32;100.00
50790;BME280;37287;47.554;7.844;2023-02-10T00:38:43;99784.81;;;-5.38;100.00
50790;BME280;37287;47.554;7.844;2023-02-10T00:41:15;99781.81;;;-5.42;100.00
50790;BME280;37287;47.554;7.844;2023-02-10T00:43:45;99784.69;;;-5.43;100.00
50790;BME280;37287;47.554;7.844;2023-02-10T00:46:12;99778.22;;;-5.47;100.00
50790;BME280;37287;47.554;7.844;2023-02-10T00:48:41;99780.31;;;-5.49;100.00
50790;BME280;37287;47.554;7.844;2023-02-10T00:51:08;99784.56;;;-5.48;100.00
50790;BME280;37287;47.554;7.844;2023-02-10T00:53:35;99787.84;;;-5.53;100.00
50790;BME280;37287;47.554;7.844;2023-02-10T00:56:04;99777.06;;;-5.52;100.00
50790;BME280;37287;47.554;7.844;2023-02-10T00:58:37;99778.47;;;-5.49;100.00
50790;BME280;37287;47.554;7.844;2023-02-10T01:01:04;99777.78;;;-5.44;100.00
50790;BME280;37287;47.554;7.844;2023-02-10T01:03:32;99771.72;;;-5.45;100.00
50790;BME280;37287;47.554;7.844;2023-02-10T01:05:59;99785.06;;;-5.40;100.00
50790;BME280;37287;47.554;7.844;2023-02-10T01:08:27;99795.00;;;-5.42;100.00
50790;BME280;37287;47.554;7.844;2023-02-10T01:11:13;99792.03;;;-5.45;100.00
50790;BME280;37287;47.554;7.844;2023-02-10T01:13:42;99781.91;;;-5.48;100.00
50790;BME280;37287;47.554;7.844;2023-02-10T01:16:14;99782.72;;;-5.48;100.00
50790;BME280;37287;47.554;7.844;2023-02-10T01:18:43;99781.09;;;-5.49;100.00
50790;BME280;37287;47.554;7.844;2023-02-10T01:21:15;99793.50;;;-5.49;100.00
50790;BME280;37287;47.554;7.844;2023-02-10T01:23:42;99784.69;;;-5.43;100.00
50790;BME280;37287;47.554;7.844;2023-02-10T01:26:09;99779.31;;;-5.37;100.00
50790;BME280;37287;47.554;7.844;2023-02-10T01:28:37;99785.50;;;-5.43;100.00
50790;BME280;37287;47.554;7.844;2023-02-10T01:31:08;99786.59;;;-5.50;100.00
50790;BME280;37287;47.554;7.844;2023-02-10T01:33:37;99789.25;;;-5.50;100.00
50790;BME280;37287;47.554;7.844;2023-02-10T01:36:05;99783.16;;;-5.51;100.00
50790;BME280;37287;47.554;7.844;2023-02-10T01:38:33;99789.31;;;-5.57;100.00
50790;BME280;37287;47.554;7.844;2023-02-10T01:41:05;99777.03;;;-5.63;100.00
50790;BME280;37287;47.554;7.844;2023-02-10T01:43:33;99782.97;;;-5.68;100.00
50790;BME280;37287;47.554;7.844;2023-02-10T01:45:59;99786.25;;;-5.73;100.00
50790;BME280;37287;47.554;7.844;2023-02-10T01:48:30;99786.25;;;-5.73;100.00
50790;BME280;37287;47.554;7.844;2023-02-10T01:51:02;99793.59;;;-5.75;100.00
50790;BME280;37287;47.554;7.844;2023-02-10T01:53:32;99790.72;;;-5.73;100.00
50790;BME280;37287;47.554;7.844;2023-02-10T01:56:01;99780.84;;;-5.78;100.00
50790;BME280;37287;47.554;7.844;2023-02-10T01:58:31;99783.03;;;-5.75;100.00
50790;BME280;37287;47.554;7.844;2023-02-10T02:01:03;99781.41;;;-5.76;100.00
50790;BME280;37287;47.554;7.844;2023-02-10T02:03:29;99789.56;;;-5.77;100.00
50790;BME280;37287;47.554;7.844;2023-02-10T02:05:56;99784.28;;;-5.77;100.00
50790;BME280;37287;47.554;7.844;2023-02-10T02:08:24;99794.59;;;-5.76;100.00
50790;BME280;37287;47.554;7.844;2023-02-10T02:22:48;99799.31;;;-5.78;100.00
50790;BME280;37287;47.554;7.844;2023-02-10T02:28:25;99804.66;;;-5.84;100.00
50790;BME280;37287;47.554;7.844;2023-02-10T02:36:38;99808.31;;;-5.85;100.00
50790;BME280;37287;47.554;7.844;2023-02-10T02:39:07;99804.31;;;-5.88;100.00
50790;BME280;37287;47.554;7.844;2023-02-10T02:41:40;99811.25;;;-5.94;100.00
50790;BME280;37287;47.554;7.844;2023-02-10T02:44:09;99806.94;;;-5.88;100.00
50790;BME280;37287;47.554;7.844;2023-02-10T02:46:55;99798.34;;;-5.83;100.00
50790;BME280;37287;47.554;7.844;2023-02-10T02:49:34;99813.00;;;-5.88;100.00
50790;BME280;37287;47.554;7.844;2023-02-10T02:52:07;99804.09;;;-5.87;100.00
50790;BME280;37287;47.554;7.844;2023-02-10T02:54:42;99814.03;;;-5.89;100.00
50790;BME280;37287;47.554;7.844;2023-02-10T02:57:29;99813.22;;;-5.89;100.00
50790;BME280;37287;47.554;7.844;2023-02-10T03:00:12;99808.97;;;-5.90;100.00
50790;BME280;37287;47.554;7.844;2023-02-10T03:02:43;99802.53;;;-5.94;100.00
50790;BME280;37287;47.554;7.844;2023-02-10T03:05:17;99801.25;;;-6.03;100.00
50790;BME280;37287;47.554;7.844;2023-02-10T03:07:45;99802.84;;;-6.02;100.00
50790;BME280;37287;47.554;7.844;2023-02-10T03:10:11;99795.75;;;-6.02;100.00
50790;BME280;37287;47.554;7.844;2023-02-10T03:12:39;99798.59;;;-6.03;100.00
50790;BME280;37287;47.554;7.844;2023-02-10T03:15:06;99798.16;;;-6.00;100.00
50790;BME280;37287;47.554;7.844;2023-02-10T03:17:33;99804.91;;;-6.05;100.00
50790;BME280;37287;47.554;7.844;2023-02-10T03:20:02;99809.34;;;-6.05;100.00
50790;BME280;37287;47.554;7.844;2023-02-10T03:22:28;99808.56;;;-6.06;100.00
50790;BME280;37287;47.554;7.844;2023-02-10T03:24:55;99810.00;;;-6.10;100.00
50790;BME280;37287;47.554;7.844;2023-02-10T03:27:24;99806.41;;;-6.15;100.00
50790;BME280;37287;47.554;7.844;2023-02-10T03:29:52;99809.00;;;-6.09;100.00
50790;BME280;37287;47.554;7.844;2023-02-10T03:32:19;99798.66;;;-6.10;100.00
50790;BME280;37287;47.554;7.844;2023-02-10T03:34:48;99803.13;;;-6.11;100.00
50790;BME280;37287;47.554;7.844;2023-02-10T03:37:16;99802.97;;;-6.16;100.00
50790;BME280;37287;47.554;7.844;2023-02-10T03:39:43;99805.41;;;-6.14;100.00
50790;BME280;37287;47.554;7.844;2023-02-10T03:42:11;99800.78;;;-6.19;100.00
50790;BME280;37287;47.554;7.844;2023-02-10T03:44:38;99803.25;;;-6.24;100.00
50790;BME280;37287;47.554;7.844;2023-02-10T03:47:06;99801.63;;;-6.25;100.00
50790;BME280;37287;47.554;7.844;2023-02-10T03:49:33;99797.97;;;-6.24;100.00
50790;BME280;37287;47.554;7.844;2023-02-10T03:51:59;99806.34;;;-6.27;100.00
50790;BME280;37287;47.554;7.844;2023-02-10T03:54:26;99803.09;;;-6.29;100.00
50790;BME280;37287;47.554;7.844;2023-02-10T03:56:58;99818.91;;;-6.29;100.00
50790;BME280;37287;47.554;7.844;2023-02-10T03:59:24;99813.84;;;-6.31;100.00
50790;BME280;37287;47.554;7.844;2023-02-10T04:01:51;99816.88;;;-6.27;100.00
50790;BME280;37287;47.554;7.844;2023-02-10T04:04:31;99809.09;;;-6.22;100.00
50790;BME280;37287;47.554;7.844;2023-02-10T04:06:57;99811.75;;;-6.22;100.00
50790;BME280;37287;47.554;7.844;2023-02-10T04:09:24;99816.88;;;-6.27;100.00
50790;BME280;37287;47.554;7.844;2023-02-10T04:11:51;99815.47;;;-6.30;100.00
50790;BME280;37287;47.554;7.844;2023-02-10T04:14:20;99810.41;;;-6.31;100.00
50790;BME280;37287;47.554;7.844;2023-02-10T04:16:47;99800.09;;;-6.33;100.00
50790;BME280;37287;47.554;7.844;2023-02-10T04:19:15;99817.53;;;-6.32;100.00
50790;BME280;37287;47.554;7.844;2023-02-10T04:21:41;99809.19;;;-6.29;100.00
50790;BME280;37287;47.554;7.844;2023-02-10T04:24:10;99820.09;;;-6.25;100.00
50790;BME280;37287;47.554;7.844;2023-02-10T04:26:41;99823.34;;;-6.23;100.00
50790;BME280;37287;47.554;7.844;2023-02-10T04:29:08;99827.41;;;-6.27;100.00
50790;BME280;37287;47.554;7.844;2023-02-10T04:31:34;99830.81;;;-6.20;100.00
50790;BME280;37287;47.554;7.844;2023-02-10T04:34:01;99835.84;;;-6.18;100.00
50790;BME280;37287;47.554;7.844;2023-02-10T04:36:28;99840.34;;;-6.19;100.00
50790;BME280;37287;47.554;7.844;2023-02-10T04:38:54;99847.06;;;-6.23;100.00
50790;BME280;37287;47.554;7.844;2023-02-10T04:41:23;99843.25;;;-6.27;100.00
50790;BME280;37287;47.554;7.844;2023-02-10T04:43:50;99845.28;;;-6.29;100.00
50790;BME280;37287;47.554;7.844;2023-02-10T04:46:16;99839.25;;;-6.36;100.00
50790;BME280;37287;47.554;7.844;2023-02-10T04:48:47;99824.66;;;-6.39;100.00
50790;BME280;37287;47.554;7.844;2023-02-10T04:51:14;99821.19;;;-6.33;100.00
50790;BME280;37287;47.554;7.844;2023-02-10T04:53:41;99831.50;;;-6.31;100.00
50790;BME280;37287;47.554;7.844;2023-02-10T04:56:11;99823.38;;;-6.30;100.00
50790;BME280;37287;47.554;7.844;2023-02-10T04:58:38;99822.81;;;-6.32;100.00
50790;BME280;37287;47.554;7.844;2023-02-10T05:01:05;99835.16;;;-6.32;100.00
50790;BME280;37287;47.554;7.844;2023-02-10T05:03:33;99825.63;;;-6.33;100.00
50790;BME280;37287;47.554;7.844;2023-02-10T05:06:11;99832.09;;;-6.29;100.00
50790;BME280;37287;47.554;7.844;2023-02-10T05:08:39;99833.28;;;-6.25;100.00
50790;BME280;37287;47.554;7.844;2023-02-10T05:11:08;99834.72;;;-6.29;100.00
50790;BME280;37287;47.554;7.844;2023-02-10T05:13:35;99836.78;;;-6.31;100.00
50790;BME280;37287;47.554;7.844;2023-02-10T05:16:09;99848.34;;;-6.32;100.00
50790;BME280;37287;47.554;7.844;2023-02-10T05:18:37;99843.28;;;-6.34;100.00
50790;BME280;37287;47.554;7.844;2023-02-10T05:21:08;99848.78;;;-6.35;100.00
50790;BME280;37287;47.554;7.844;2023-02-10T05:23:36;99839.69;;;-6.40;100.00
50790;BME280;37287;47.554;7.844;2023-02-10T05:26:03;99826.91;;;-6.36;100.00
50790;BME280;37287;47.554;7.844;2023-02-10T05:28:30;99835.44;;;-6.41;100.00
50790;BME280;37287;47.554;7.844;2023-02-10T05:31:00;99840.13;;;-6.43;100.00
50790;BME280;37287;47.554;7.844;2023-02-10T05:33:26;99835.28;;;-6.46;100.00
50790;BME280;37287;47.554;7.844;2023-02-10T05:35:53;99843.78;;;-6.44;100.00
50790;BME280;37287;47.554;7.844;2023-02-10T05:38:19;99843.78;;;-6.44;100.00
50790;BME280;37287;47.554;7.844;2023-02-10T05:40:48;99842.75;;;-6.43;100.00
50790;BME280;37287;47.554;7.844;2023-02-10T05:43:15;99840.91;;;-6.42;100.00
50790;BME280;37287;47.554;7.844;2023-02-10T05:45:41;99845.00;;;-6.46;100.00
50790;BME280;37287;47.554;7.844;2023-02-10T05:48:10;99849.47;;;-6.47;100.00
50790;BME280;37287;47.554;7.844;2023-02-10T05:50:36;99850.69;;;-6.49;100.00
50790;BME280;37287;47.554;7.844;2023-02-10T05:53:06;99853.72;;;-6.46;100.00
50790;BME280;37287;47.554;7.844;2023-02-10T05:55:32;99856.72;;;-6.42;100.00
50790;BME280;37287;47.554;7.844;2023-02-10T05:57:59;99857.59;;;-6.48;100.00
50790;BME280;37287;47.554;7.844;2023-02-10T06:00:27;99857.22;;;-6.52;100.00
50790;BME280;37287;47.554;7.844;2023-02-10T06:02:58;99856.84;;;-6.55;100.00
50790;BME280;37287;47.554;7.844;2023-02-10T06:05:26;99858.88;;;-6.58;100.00
50790;BME280;37287;47.554;7.844;2023-02-10T06:07:55;99859.94;;;-6.65;100.00
50790;BME280;37287;47.554;7.844;2023-02-10T06:10:26;99860.97;;;-6.66;100.00
50790;BME280;37287;47.554;7.844;2023-02-10T06:12:53;99858.94;;;-6.64;100.00
50790;BME280;37287;47.554;7.844;2023-02-10T06:15:20;99863.16;;;-6.63;100.00
50790;BME280;37287;47.554;7.844;2023-02-10T06:17:46;99865.00;;;-6.64;100.00
50790;BME280;37287;47.554;7.844;2023-02-10T06:20:13;99874.13;;;-6.66;100.00
50790;BME280;37287;47.554;7.844;2023-02-10T06:22:40;99876.00;;;-6.74;100.00
50790;BME280;37287;47.554;7.844;2023-02-10T06:25:06;99884.97;;;-6.81;100.00
50790;BME280;37287;47.554;7.844;2023-02-10T06:27:33;99888.22;;;-6.86;100.00
50790;BME280;37287;47.554;7.844;2023-02-10T06:29:59;99874.84;;;-6.84;100.00
50790;BME280;37287;47.554;7.844;2023-02-10T06:32:28;99878.09;;;-6.82;100.00
50790;BME280;37287;47.554;7.844;2023-02-10T06:34:55;99877.44;;;-6.78;100.00
50790;BME280;37287;47.554;7.844;2023-02-10T06:37:21;99882.06;;;-6.73;100.00
50790;BME280;37287;47.554;7.844;2023-02-10T06:39:49;99884.09;;;-6.68;100.00
50790;BME280;37287;47.554;7.844;2023-02-10T06:42:16;99892.56;;;-6.66;100.00
50790;BME280;37287;47.554;7.844;2023-02-10T06:44:44;99890.56;;;-6.64;100.00
50790;BME280;37287;47.554;7.844;2023-02-10T06:47:22;99888.50;;;-6.62;100.00
50790;BME280;37287;47.554;7.844;2023-02-10T06:49:49;99879.72;;;-6.56;100.00
50790;BME280;37287;47.554;7.844;2023-02-10T06:52:15;99894.72;;;-6.50;100.00
50790;BME280;37287;47.554;7.844;2023-02-10T06:54:44;99890.78;;;-6.41;100.00
50790;BME280;37287;47.554;7.844;2023-02-10T06:57:11;99889.31;;;-6.36;100.00
50790;BME280;37287;47.554;7.844;2023-02-10T06:59:37;99890.50;;;-6.32;100.00
50790;BME280;37287;47.554;7.844;2023-02-10T07:02:10;99896.75;;;-6.27;100.00
50790;BME280;37287;47.554;7.844;2023-02-10T07:04:36;99895.53;;;-6.24;100.00
50790;BME280;37287;47.554;7.844;2023-02-10T07:07:05;99891.00;;;-6.17;100.00
50790;BME280;37287;47.554;7.844;2023-02-10T07:09:31;99893.38;;;-6.09;100.00
50790;BME280;37287;47.554;7.844;2023-02-10T07:11:58;99889.06;;;-6.03;100.00
50790;BME280;37287;47.554;7.844;2023-02-10T07:14:24;99894.75;;;-5.62;100.00
50790;BME280;37287;47.554;7.844;2023-02-10T07:16:53;99891.41;;;-5.02;100.00
50790;BME280;37287;47.554;7.844;2023-02-10T07:19:19;99899.84;;;-4.51;100.00
50790;BME280;37287;47.554;7.844;2023-02-10T07:21:48;99900.41;;;-4.07;100.00
50790;BME280;37287;47.554;7.844;2023-02-10T07:24:19;99906.28;;;-3.57;100.00
50790;BME280;37287;47.554;7.844;2023-02-10T07:26:46;99908.63;;;-3.20;100.00
50790;BME280;37287;47.554;7.844;2023-02-10T07:29:12;99911.09;;;-2.73;100.00
50790;BME280;37287;47.554;7.844;2023-02-10T07:31:39;99920.69;;;-2.43;100.00
50790;BME280;37287;47.554;7.844;2023-02-10T07:34:06;99921.75;;;-2.10;100.00
50790;BME280;37287;47.554;7.844;2023-02-10T07:36:32;99928.53;;;-1.63;100.00
50790;BME280;37287;47.554;7.844;2023-02-10T07:39:01;99931.06;;;-1.74;100.00
50790;BME280;37287;47.554;7.844;2023-02-10T07:41:28;99924.78;;;-1.84;100.00
50790;BME280;37287;47.554;7.844;2023-02-10T07:43:58;99928.38;;;-1.57;100.00
50790;BME280;37287;47.554;7.844;2023-02-10T07:46:26;99926.97;;;-1.42;100.00
50790;BME280;37287;47.554;7.844;2023-02-10T07:48:52;99930.16;;;-1.01;100.00
50790;BME280;37287;47.554;7.844;2023-02-10T07:51:19;99927.47;;;-0.79;100.00
50790;BME280;37287;47.554;7.844;2023-02-10T07:53:46;99932.41;;;-0.65;96.69
50790;BME280;37287;47.554;7.844;2023-02-10T07:56:12;99932.38;;;-0.43;95.06
50790;BME280;37287;47.554;7.844;2023-02-10T07:58:39;99931.34;;;-0.10;93.25
50790;BME280;37287;47.554;7.844;2023-02-10T08:01:08;99927.84;;;-0.10;89.00
50790;BME280;37287;47.554;7.844;2023-02-10T08:03:36;99926.28;;;-0.06;88.57
50790;BME280;37287;47.554;7.844;2023-02-10T08:06:03;99931.53;;;0.21;87.83
50790;BME280;37287;47.554;7.844;2023-02-10T08:08:37;99928.66;;;0.28;85.43
50790;BME280;37287;47.554;7.844;2023-02-10T08:11:04;99930.91;;;0.46;86.15
50790;BME280;37287;47.554;7.844;2023-02-10T08:13:32;99929.16;;;0.62;83.05
50790;BME280;37287;47.554;7.844;2023-02-10T08:16:05;99933.31;;;1.01;83.85
50790;BME280;37287;47.554;7.844;2023-02-10T08:18:34;99934.19;;;1.27;83.38
50790;BME280;37287;47.554;7.844;2023-02-10T08:21:01;99940.44;;;1.69;79.29
50790;BME280;37287;47.554;7.844;2023-02-10T08:23:30;99934.03;;;1.85;76.55
50790;BME280;37287;47.554;7.844;2023-02-10T08:25:57;99943.66;;;2.22;78.25
50790;BME280;37287;47.554;7.844;2023-02-10T08:28:24;99931.84;;;2.49;72.77
50790;BME280;37287;47.554;7.844;2023-02-10T08:31:01;99937.22;;;2.18;74.79
50790;BME280;37287;47.554;7.844;2023-02-10T08:33:33;99939.56;;;2.61;74.84
50790;BME280;37287;47.554;7.844;2023-02-10T08:36:14;99943.13;;;3.17;71.71
50790;BME280;37287;47.554;7.844;2023-02-10T08:38:44;99943.63;;;3.69;72.07
50790;BME280;37287;47.554;7.844;2023-02-10T08:41:17;99937.53;;;3.98;71.52
50790;BME280;37287;47.554;7.844;2023-02-10T08:43:47;99938.19;;;4.43;70.68
50790;BME280;37287;47.554;7.844;2023-02-10T08:46:14;99938.38;;;4.76;66.49
50790;BME280;37287;47.554;7.844;2023-02-10T08:48:44;99944.78;;;4.26;63.79
50790;BME280;37287;47.554;7.844;2023-02-10T08:51:14;99951.38;;;4.63;67.42
50790;BME280;37287;47.554;7.844;2023-02-10T08:53:41;99941.94;;;5.14;66.21
50790;BME280;37287;47.554;7.844;2023-02-10T08:56:14;99946.66;;;5.23;61.29
50790;BME280;37287;47.554;7.844;2023-02-10T08:58:41;99945.38;;;5.58;64.26
50790;BME280;37287;47.554;7.844;2023-02-10T09:01:13;99951.69;;;5.86;61.98
50790;BME280;37287;47.554;7.844;2023-02-10T09:03:44;99951.44;;;6.21;62.92
50790;BME280;37287;47.554;7.844;2023-02-10T09:06:19;99944.56;;;5.77;58.10
50790;BME280;37287;47.554;7.844;2023-02-10T09:08:59;99941.94;;;5.91;60.07
50790;BME280;37287;47.554;7.844;2023-02-10T09:11:26;99946.53;;;6.56;59.49
50790;BME280;37287;47.554;7.844;2023-02-10T09:13:53;99949.09;;;6.47;56.59
50790;BME280;37287;47.554;7.844;2023-02-10T09:16:21;99940.16;;;6.19;60.16
50790;BME280;37287;47.554;7.844;2023-02-10T09:18:48;99944.78;;;5.99;58.23
50790;BME280;37287;47.554;7.844;2023-02-10T09:21:16;99944.47;;;6.20;59.98
50790;BME280;37287;47.554;7.844;2023-02-10T09:23:44;99951.63;;;6.25;58.01
50790;BME280;37287;47.554;7.844;2023-02-10T09:26:11;99947.75;;;6.17;55.71
50790;BME280;37287;47.554;7.844;2023-02-10T09:28:38;99948.91;;;6.71;59.88
50790;BME280;37287;47.554;7.844;2023-02-10T09:31:06;99962.91;;;7.01;57.11
50790;BME280;37287;47.554;7.844;2023-02-10T09:33:33;99957.69;;;7.05;60.71
50790;BME280;37287;47.554;7.844;2023-02-10T09:36:05;99958.59;;;7.28;59.31
50790;BME280;37287;47.554;7.844;2023-02-10T09:38:33;99949.81;;;7.09;59.00
50790;BME280;37287;47.554;7.844;2023-02-10T09:41:37;99949.13;;;6.89;54.55
50790;BME280;37287;47.554;7.844;2023-02-10T09:44:11;99943.97;;;7.43;56.07
50790;BME280;37287;47.554;7.844;2023-02-10T09:57:50;99939.19;;;8.53;57.23
50790;BME280;37287;47.554;7.844;2023-02-10T10:00:30;99942.25;;;9.09;54.63
50790;BME280;37287;47.554;7.844;2023-02-10T10:03:03;99942.13;;;9.50;54.97
50790;BME280;37287;47.554;7.844;2023-02-10T10:05:56;99934.03;;;9.85;47.30
50790;BME280;37287;47.554;7.844;2023-02-10T10:08:43;99948.94;;;9.12;52.31
50790;BME280;37287;47.554;7.844;2023-02-10T10:11:23;99944.31;;;8.64;48.15
50790;BME280;37287;47.554;7.844;2023-02-10T10:13:51;99943.84;;;8.07;51.67
50790;BME280;37287;47.554;7.844;2023-02-10T10:16:45;99944.78;;;8.34;53.37
50790;BME280;37287;47.554;7.844;2023-02-10T10:25:47;99944.16;;;8.37;50.05
50790;BME280;37287;47.554;7.844;2023-02-10T10:31:33;99956.19;;;7.63;51.62
50790;BME280;37287;47.554;7.844;2023-02-10T10:36:36;99932.31;;;7.34;53.15
50790;BME280;37287;47.554;7.844;2023-02-10T10:41:49;99928.44;;;7.63;51.07
50790;BME280;37287;47.554;7.844;2023-02-10T10:44:20;99914.72;;;7.96;50.78
50790;BME280;37287;47.554;7.844;2023-02-10T10:49:24;99914.78;;;8.36;51.91
50790;BME280;37287;47.554;7.844;2023-02-10T10:51:50;99908.66;;;8.84;50.36
50790;BME280;37287;47.554;7.844;2023-02-10T10:54:19;99905.53;;;9.08;51.96
50790;BME280;37287;47.554;7.844;2023-02-10T10:56:51;99907.56;;;9.03;49.87
50790;BME280;37287;47.554;7.844;2023-02-10T10:59:35;99902.69;;;9.22;51.54
50790;BME280;37287;47.554;7.844;2023-02-10T11:02:18;99903.34;;;9.72;47.56
50790;BME280;37287;47.554;7.844;2023-02-10T11:04:45;99897.09;;;9.71;45.96
50790;BME280;37287;47.554;7.844;2023-02-10T11:07:18;99889.97;;;9.58;46.73
50790;BME280;37287;47.554;7.844;2023-02-10T11:09:51;99890.38;;;10.12;46.81
50790;BME280;37287;47.554;7.844;2023-02-10T11:12:26;99884.09;;;10.38;49.20
50790;BME280;37287;47.554;7.844;2023-02-10T11:14:54;99885.34;;;10.49;48.30
50790;BME280;37287;47.554;7.844;2023-02-10T11:17:30;99881.84;;;9.84;48.55
50790;BME280;37287;47.554;7.844;2023-02-10T11:20:00;99886.31;;;10.45;48.80
50790;BME280;37287;47.554;7.844;2023-02-10T11:22:31;99878.22;;;10.27;46.64
50790;BME280;37287;47.554;7.844;2023-02-10T11:25:00;99887.28;;;10.31;48.37
50790;BME280;37287;47.554;7.844;2023-02-10T11:27:27;99889.38;;;10.64;49.60
50790;BME280;37287;47.554;7.844;2023-02-10T11:29:57;99880.44;;;10.73;46.98
50790;BME280;37287;47.554;7.844;2023-02-10T11:32:29;99870.06;;;9.80;47.81
50790;BME280;37287;47.554;7.844;2023-02-10T11:35:00;99865.78;;;9.70;47.75
50790;BME280;37287;47.554;7.844;2023-02-10T11:37:35;99866.81;;;10.13;50.39
50790;BME280;37287;47.554;7.844;2023-02-10T11:40:17;99856.75;;;10.13;44.34
50790;BME280;37287;47.554;7.844;2023-02-10T11:42:56;99856.59;;;10.19;48.85
50790;BME280;37287;47.554;7.844;2023-02-10T11:45:28;99861.78;;;10.41;48.96
50790;BME280;37287;47.554;7.844;2023-02-10T11:48:12;99854.78;;;10.70;49.02
50790;BME280;37287;47.554;7.844;2023-02-10T11:50:39;99856.72;;;10.70;46.95
50790;BME280;37287;47.554;7.844;2023-02-10T11:53:20;99849.41;;;10.61;49.00
50790;BME280;37287;47.554;7.844;2023-02-10T11:55:58;99840.69;;;10.56;49.29
50790;BME280;37287;47.554;7.844;2023-02-10T11:58:48;99853.44;;;10.55;46.78
50790;BME280;37287;47.554;7.844;2023-02-10T12:04:44;99840.22;;;10.06;47.14
50790;BME280;37287;47.554;7.844;2023-02-10T12:09:59;99845.16;;;10.60;47.70
50790;BME280;37287;47.554;7.844;2023-02-10T12:12:46;99837.06;;;10.04;44.20
50790;BME280;37287;47.554;7.844;2023-02-10T12:15:23;99833.63;;;9.77;45.12
50790;BME280;37287;47.554;7.844;2023-02-10T12:18:18;99832.34;;;9.84;45.97
50790;BME280;37287;47.554;7.844;2023-02-10T12:24:02;99830.88;;;9.95;47.99
50790;BME280;37287;47.554;7.844;2023-02-10T12:38:17;99825.78;;;10.71;45.16
50790;BME280;37287;47.554;7.844;2023-02-10T12:46:59;99823.97;;;11.26;45.77
50790;BME280;37287;47.554;7.844;2023-02-10T12:49:34;99819.44;;;11.51;45.54
50790;BME280;37287;47.554;7.844;2023-02-10T12:52:14;99821.22;;;11.47;47.60
50790;BME280;37287;47.554;7.844;2023-02-10T12:54:53;99824.75;;;11.26;46.58
50790;BME280;37287;47.554;7.844;2023-02-10T12:57:30;99817.47;;;11.18;47.51
50790;BME280;37287;47.554;7.844;2023-02-10T13:00:21;99820.84;;;10.94;44.40
50790;BME280;37287;47.554;7.844;2023-02-10T13:03:02;99814.16;;;10.70;47.71
50790;BME280;37287;47.554;7.844;2023-02-10T13:05:38;99818.47;;;11.13;48.46
50790;BME280;37287;47.554;7.844;2023-02-10T13:08:12;99820.22;;;11.51;47.13
50790;BME280;37287;47.554;7.844;2023-02-10T13:10:46;99820.22;;;11.51;46.38
50790;BME280;37287;47.554;7.844;2023-02-10T13:13:24;99816.25;;;11.49;46.64
50790;BME280;37287;47.554;7.844;2023-02-10T13:16:04;99802.72;;;11.61;45.65
50790;BME280;37287;47.554;7.844;2023-02-10T13:18:54;99810.47;;;11.38;44.76
50790;BME280;37287;47.554;7.844;2023-02-10T13:21:29;99805.69;;;11.14;43.71
50790;BME280;37287;47.554;7.844;2023-02-10T13:24:18;99810.41;;;11.26;44.82
50790;BME280;37287;47.554;7.844;2023-02-10T13:27:14;99803.88;;;11.06;44.23
50790;BME280;37287;47.554;7.844;2023-02-10T13:33:09;99800.59;;;10.70;43.42
50790;BME280;37287;47.554;7.844;2023-02-10T13:35:40;99794.47;;;10.61;47.12
50790;BME280;37287;47.554;7.844;2023-02-10T13:38:09;99798.50;;;10.76;47.03
50790;BME280;37287;47.554;7.844;2023-02-10T13:40:52;99797.00;;;10.66;45.53
50790;BME280;37287;47.554;7.844;2023-02-10T13:43:31;99800.03;;;10.26;46.57
50790;BME280;37287;47.554;7.844;2023-02-10T13:45:59;99799.13;;;10.13;49.02
50790;BME280;37287;47.554;7.844;2023-02-10T13:48:31;99793.22;;;9.72;48.46
50790;BME280;37287;47.554;7.844;2023-02-10T13:51:05;99793.06;;;9.60;49.14
50790;BME280;37287;47.554;7.844;2023-02-10T13:56:12;99791.06;;;9.39;49.13
50790;BME280;37287;47.554;7.844;2023-02-10T13:58:58;99792.53;;;9.19;48.35
50790;BME280;37287;47.554;7.844;2023-02-10T14:01:42;99789.97;;;9.14;48.20
50790;BME280;37287;47.554;7.844;2023-02-10T14:06:47;99788.53;;;9.17;46.46
50790;BME280;37287;47.554;7.844;2023-02-10T14:11:48;99786.78;;;9.29;49.36
50790;BME280;37287;47.554;7.844;2023-02-10T14:14:35;99793.31;;;9.20;46.69
50790;BME280;37287;47.554;7.844;2023-02-10T14:22:00;99795.84;;;8.90;49.98
50790;BME280;37287;47.554;7.844;2023-02-10T14:24:29;99796.63;;;8.73;49.37
50790;BME280;37287;47.554;7.844;2023-02-10T14:27:16;99799.75;;;8.49;50.58
50790;BME280;37287;47.554;7.844;2023-02-10T14:29:50;99800.94;;;8.34;49.53
50790;BME280;37287;47.554;7.844;2023-02-10T14:32:20;99801.56;;;8.31;51.40
50790;BME280;37287;47.554;7.844;2023-02-10T14:37:25;99806.88;;;8.45;50.42
50790;BME280;37287;47.554;7.844;2023-02-10T14:40:00;99800.72;;;8.62;49.02
50790;BME280;37287;47.554;7.844;2023-02-10T14:42:31;99795.00;;;8.54;48.53
50790;BME280;37287;47.554;7.844;2023-02-10T14:45:00;99796.50;;;8.29;50.19
50790;BME280;37287;47.554;7.844;2023-02-10T14:47:31;99796.38;;;8.03;48.98
50790;BME280;37287;47.554;7.844;2023-02-10T14:49:59;99798.63;;;7.69;49.50
50790;BME280;37287;47.554;7.844;2023-02-10T14:52:33;99801.69;;;7.31;50.18